sensor_id;sensor_type;location;lat;lon;timestamp;temperature;humidity
18252;DHT22;26917;52.328;20.878;2023-03-14T00:01:08;9.20;99.90
18252;DHT22;26917;52.328;20.878;2023-03-14T00:03:38;9.20;99.90
18252;DHT22;26917;52.328;20.878;2023-03-14T00:06:07;9.20;99.90
18252;DHT22;26917;52.328;20.878;2023-03-14T00:08:36;9.20;99.90
18252;DHT22;26917;52.328;20.878;2023-03-14T00:11:06;9.20;99.90
18252;DHT22;26917;52.328;20.878;2023-03-14T00:13:34;9.10;99.90
18252;DHT22;26917;52.328;20.878;2023-03-14T00:16:04;9.00;99.90
18252;DHT22;26917;52.328;20.878;2023-03-14T00:18:33;9.00;99.90
18252;DHT22;26917;52.328;20.878;2023-03-14T00:21:04;9.00;99.90
18252;DHT22;26917;52.328;20.878;2023-03-14T00:23:35;8.90;99.90
18252;DHT22;26917;52.328;20.878;2023-03-14T00:26:05;8.90;99.90
18252;DHT22;26917;52.328;20.878;2023-03-14T00:28:34;8.90;99.90
18252;DHT22;26917;52.328;20.878;2023-03-14T00:31:04;9.60;99.90
18252;DHT22;26917;52.328;20.878;2023-03-14T00:33:33;8.80;99.90
18252;DHT22;26917;52.328;20.878;2023-03-14T00:36:06;8.80;99.90
18252;DHT22;26917;52.328;20.878;2023-03-14T00:38:37;8.80;99.90
18252;DHT22;26917;52.328;20.878;2023-03-14T00:41:08;8.80;99.90
18252;DHT22;26917;52.328;20.878;2023-03-14T00:43:37;8.90;99.90
18252;DHT22;26917;52.328;20.878;2023-03-14T00:46:06;9.00;99.90
18252;DHT22;26917;52.328;20.878;2023-03-14T00:48:35;9.00;99.90
18252;DHT22;26917;52.328;20.878;2023-03-14T00:51:07;9.00;99.90
18252;DHT22;26917;52.328;20.878;2023-03-14T00:53:37;9.10;99.90
18252;DHT22;26917;52.328;20.878;2023-03-14T00:56:08;9.00;99.90
18252;DHT22;26917;52.328;20.878;2023-03-14T00:58:37;9.00;99.90
18252;DHT22;26917;52.328;20.878;2023-03-14T01:01:07;9.00;99.90
18252;DHT22;26917;52.328;20.878;2023-03-14T01:03:35;8.90;99.90
18252;DHT22;26917;52.328;20.878;2023-03-14T01:06:10;8.90;99.90
18252;DHT22;26917;52.328;20.878;2023-03-14T01:08:39;8.90;99.90
18252;DHT22;26917;52.328;20.878;2023-03-14T01:11:09;8.80;99.90
18252;DHT22;26917;52.328;20.878;2023-03-14T01:13:38;8.80;99.90
18252;DHT22;26917;52.328;20.878;2023-03-14T01:16:08;8.80;99.90
18252;DHT22;26917;52.328;20.878;2023-03-14T01:18:39;8.80;99.90
18252;DHT22;26917;52.328;20.878;2023-03-14T01:21:13;8.70;99.90
18252;DHT22;26917;52.328;20.878;2023-03-14T01:23:43;8.70;99.90
18252;DHT22;26917;52.328;20.878;2023-03-14T01:26:14;8.60;99.90
18252;DHT22;26917;52.328;20.878;2023-03-14T01:28:43;8.60;99.90
18252;DHT22;26917;52.328;20.878;2023-03-14T01:31:12;8.50;99.90
18252;DHT22;26917;52.328;20.878;2023-03-14T01:33:41;8.50;99.90
18252;DHT22;26917;52.328;20.878;2023-03-14T01:36:12;8.40;99.90
18252;DHT22;26917;52.328;20.878;2023-03-14T01:38:42;8.30;99.90
18252;DHT22;26917;52.328;20.878;2023-03-14T01:41:17;8.20;99.90
18252;DHT22;26917;52.328;20.878;2023-03-14T01:43:47;8.20;99.90
18252;DHT22;26917;52.328;20.878;2023-03-14T01:46:21;8.10;99.90
18252;DHT22;26917;52.328;20.878;2023-03-14T01:48:55;8.10;99.90
18252;DHT22;26917;52.328;20.878;2023-03-14T01:51:40;8.00;99.90
18252;DHT22;26917;52.328;20.878;2023-03-14T01:54:16;8.00;99.90
18252;DHT22;26917;52.328;20.878;2023-03-14T01:56:49;7.90;99.90
18252;DHT22;26917;52.328;20.878;2023-03-14T01:59:19;7.80;99.90
18252;DHT22;26917;52.328;20.878;2023-03-14T02:01:49;7.80;99.90
18252;DHT22;26917;52.328;20.878;2023-03-14T02:04:19;7.70;99.90
18252;DHT22;26917;52.328;20.878;2023-03-14T02:06:53;7.60;99.90
18252;DHT22;26917;52.328;20.878;2023-03-14T02:09:27;7.60;99.90
18252;DHT22;26917;52.328;20.878;2023-03-14T02:11:56;7.50;99.90
18252;DHT22;26917;52.328;20.878;2023-03-14T02:14:50;7.40;99.90
18252;DHT22;26917;52.328;20.878;2023-03-14T02:17:24;7.40;99.90
18252;DHT22;26917;52.328;20.878;2023-03-14T02:20:23;7.40;99.90
18252;DHT22;26917;52.328;20.878;2023-03-14T02:22:56;7.30;99.90
18252;DHT22;26917;52.328;20.878;2023-03-14T02:25:34;7.40;99.90
18252;DHT22;26917;52.328;20.878;2023-03-14T02:28:08;7.40;99.90
18252;DHT22;26917;52.328;20.878;2023-03-14T02:30:38;7.40;99.90
18252;DHT22;26917;52.328;20.878;2023-03-14T02:33:08;7.40;99.90
18252;DHT22;26917;52.328;20.878;2023-03-14T02:35:41;7.30;99.90
18252;DHT22;26917;52.328;20.878;2023-03-14T02:38:15;7.30;99.90
18252;DHT22;26917;52.328;20.878;2023-03-14T02:40:47;7.40;99.90
18252;DHT22;26917;52.328;20.878;2023-03-14T02:43:18;7.30;99.90
18252;DHT22;26917;52.328;20.878;2023-03-14T02:45:53;7.30;99.90
18252;DHT22;26917;52.328;20.878;2023-03-14T02:48:25;7.30;99.90
18252;DHT22;26917;52.328;20.878;2023-03-14T02:50:57;7.20;99.90
18252;DHT22;26917;52.328;20.878;2023-03-14T02:53:28;7.10;99.90
18252;DHT22;26917;52.328;20.878;2023-03-14T02:56:00;7.10;99.90
18252;DHT22;26917;52.328;20.878;2023-03-14T02:58:32;7.00;99.90
18252;DHT22;26917;52.328;20.878;2023-03-14T03:01:09;7.00;99.90
18252;DHT22;26917;52.328;20.878;2023-03-14T03:03:38;6.90;99.90
18252;DHT22;26917;52.328;20.878;2023-03-14T03:06:07;6.90;99.90
18252;DHT22;26917;52.328;20.878;2023-03-14T03:08:35;6.90;99.90
18252;DHT22;26917;52.328;20.878;2023-03-14T03:11:04;6.80;99.90
18252;DHT22;26917;52.328;20.878;2023-03-14T03:13:35;6.80;99.90
18252;DHT22;26917;52.328;20.878;2023-03-14T03:16:05;6.50;99.90
18252;DHT22;26917;52.328;20.878;2023-03-14T03:18:34;6.70;99.90
18252;DHT22;26917;52.328;20.878;2023-03-14T03:21:05;6.70;99.90
18252;DHT22;26917;52.328;20.878;2023-03-14T03:23:35;6.70;99.90
18252;DHT22;26917;52.328;20.878;2023-03-14T03:26:05;6.60;99.90
18252;DHT22;26917;52.328;20.878;2023-03-14T03:28:35;6.60;99.90
18252;DHT22;26917;52.328;20.878;2023-03-14T03:31:09;6.80;99.90
18252;DHT22;26917;52.328;20.878;2023-03-14T03:33:38;6.50;99.90
18252;DHT22;26917;52.328;20.878;2023-03-14T03:36:08;6.50;99.90
18252;DHT22;26917;52.328;20.878;2023-03-14T03:38:39;6.50;99.90
18252;DHT22;26917;52.328;20.878;2023-03-14T03:41:08;6.60;99.90
18252;DHT22;26917;52.328;20.878;2023-03-14T03:43:41;6.60;99.90
18252;DHT22;26917;52.328;20.878;2023-03-14T03:46:13;6.20;99.90
18252;DHT22;26917;52.328;20.878;2023-03-14T03:48:41;6.50;99.90
18252;DHT22;26917;52.328;20.878;2023-03-14T03:51:12;6.20;99.90
18252;DHT22;26917;52.328;20.878;2023-03-14T03:53:42;6.30;99.90
18252;DHT22;26917;52.328;20.878;2023-03-14T03:56:13;6.20;99.90
18252;DHT22;26917;52.328;20.878;2023-03-14T03:58:44;6.40;99.90
18252;DHT22;26917;52.328;20.878;2023-03-14T04:01:13;6.30;99.90
18252;DHT22;26917;52.328;20.878;2023-03-14T04:03:43;6.30;99.90
18252;DHT22;26917;52.328;20.878;2023-03-14T04:06:13;6.20;99.90
18252;DHT22;26917;52.328;20.878;2023-03-14T04:08:45;6.40;99.90
18252;DHT22;26917;52.328;20.878;2023-03-14T04:11:39;6.10;99.90
18252;DHT22;26917;52.328;20.878;2023-03-14T04:14:22;6.10;99.90
18252;DHT22;26917;52.328;20.878;2023-03-14T04:17:01;6.10;99.90
18252;DHT22;26917;52.328;20.878;2023-03-14T04:19:30;6.00;99.90
18252;DHT22;26917;52.328;20.878;2023-03-14T04:21:58;5.90;99.90
18252;DHT22;26917;52.328;20.878;2023-03-14T04:24:32;6.00;99.90
18252;DHT22;26917;52.328;20.878;2023-03-14T04:27:02;5.90;99.90
18252;DHT22;26917;52.328;20.878;2023-03-14T04:29:33;5.90;99.90
18252;DHT22;26917;52.328;20.878;2023-03-14T04:32:02;5.90;99.90
18252;DHT22;26917;52.328;20.878;2023-03-14T04:34:30;5.90;99.90
18252;DHT22;26917;52.328;20.878;2023-03-14T04:37:00;5.90;99.90
18252;DHT22;26917;52.328;20.878;2023-03-14T04:39:35;5.90;99.90
18252;DHT22;26917;52.328;20.878;2023-03-14T04:42:15;6.00;99.90
18252;DHT22;26917;52.328;20.878;2023-03-14T04:44:45;6.10;99.90
18252;DHT22;26917;52.328;20.878;2023-03-14T04:47:19;6.10;99.90
18252;DHT22;26917;52.328;20.878;2023-03-14T04:49:49;6.30;99.90
18252;DHT22;26917;52.328;20.878;2023-03-14T04:52:18;6.20;99.90
18252;DHT22;26917;52.328;20.878;2023-03-14T04:54:46;5.10;99.90
18252;DHT22;26917;52.328;20.878;2023-03-14T04:57:16;6.30;99.90
18252;DHT22;26917;52.328;20.878;2023-03-14T04:59:47;6.40;99.90
18252;DHT22;26917;52.328;20.878;2023-03-14T05:02:41;6.40;99.90
18252;DHT22;26917;52.328;20.878;2023-03-14T05:05:21;6.50;99.90
18252;DHT22;26917;52.328;20.878;2023-03-14T05:08:12;6.60;99.90
18252;DHT22;26917;52.328;20.878;2023-03-14T05:10:40;6.60;99.90
18252;DHT22;26917;52.328;20.878;2023-03-14T05:13:29;6.70;99.90
18252;DHT22;26917;52.328;20.878;2023-03-14T05:16:22;6.70;99.90
18252;DHT22;26917;52.328;20.878;2023-03-14T05:19:00;6.80;99.90
18252;DHT22;26917;52.328;20.878;2023-03-14T05:21:43;6.80;99.90
18252;DHT22;26917;52.328;20.878;2023-03-14T05:24:30;6.90;99.90
18252;DHT22;26917;52.328;20.878;2023-03-14T05:26:58;6.90;99.90
18252;DHT22;26917;52.328;20.878;2023-03-14T05:29:43;6.90;99.90
18252;DHT22;26917;52.328;20.878;2023-03-14T05:32:19;7.00;99.90
18252;DHT22;26917;52.328;20.878;2023-03-14T05:35:02;7.00;99.90
18252;DHT22;26917;52.328;20.878;2023-03-14T05:37:50;7.00;99.90
18252;DHT22;26917;52.328;20.878;2023-03-14T05:40:41;7.20;99.90
18252;DHT22;26917;52.328;20.878;2023-03-14T05:43:16;7.10;99.90
18252;DHT22;26917;52.328;20.878;2023-03-14T05:46:17;7.20;99.90
18252;DHT22;26917;52.328;20.878;2023-03-14T05:48:49;7.40;99.90
18252;DHT22;26917;52.328;20.878;2023-03-14T05:51:42;7.30;99.90
18252;DHT22;26917;52.328;20.878;2023-03-14T05:54:22;7.40;99.90
18252;DHT22;26917;52.328;20.878;2023-03-14T05:57:09;7.50;99.90
18252;DHT22;26917;52.328;20.878;2023-03-14T06:00:14;7.70;99.90
18252;DHT22;26917;52.328;20.878;2023-03-14T06:02:53;7.70;99.90
18252;DHT22;26917;52.328;20.878;2023-03-14T06:05:29;7.80;99.90
18252;DHT22;26917;52.328;20.878;2023-03-14T06:08:00;7.80;99.90
18252;DHT22;26917;52.328;20.878;2023-03-14T06:10:31;7.80;99.90
18252;DHT22;26917;52.328;20.878;2023-03-14T06:12:59;7.90;99.90
18252;DHT22;26917;52.328;20.878;2023-03-14T06:15:28;7.90;99.90
18252;DHT22;26917;52.328;20.878;2023-03-14T06:17:57;7.80;99.90
18252;DHT22;26917;52.328;20.878;2023-03-14T06:20:27;7.70;99.90
18252;DHT22;26917;52.328;20.878;2023-03-14T06:22:57;7.70;99.90
18252;DHT22;26917;52.328;20.878;2023-03-14T06:25:26;7.60;99.90
18252;DHT22;26917;52.328;20.878;2023-03-14T06:27:54;7.50;99.90
18252;DHT22;26917;52.328;20.878;2023-03-14T06:30:23;7.50;99.90
18252;DHT22;26917;52.328;20.878;2023-03-14T06:32:53;7.50;99.90
18252;DHT22;26917;52.328;20.878;2023-03-14T06:35:22;7.50;99.90
18252;DHT22;26917;52.328;20.878;2023-03-14T06:37:51;7.60;99.90
18252;DHT22;26917;52.328;20.878;2023-03-14T06:40:21;7.70;99.90
18252;DHT22;26917;52.328;20.878;2023-03-14T06:43:08;7.90;99.90
18252;DHT22;26917;52.328;20.878;2023-03-14T06:45:38;8.30;99.90
18252;DHT22;26917;52.328;20.878;2023-03-14T06:48:07;8.70;99.90
18252;DHT22;26917;52.328;20.878;2023-03-14T06:50:40;9.20;99.90
18252;DHT22;26917;52.328;20.878;2023-03-14T06:53:08;9.60;99.90
18252;DHT22;26917;52.328;20.878;2023-03-14T06:55:41;9.90;99.90
18252;DHT22;26917;52.328;20.878;2023-03-14T06:58:10;10.00;99.90
18252;DHT22;26917;52.328;20.878;2023-03-14T07:00:42;10.10;99.90
18252;DHT22;26917;52.328;20.878;2023-03-14T07:03:14;10.20;99.90
18252;DHT22;26917;52.328;20.878;2023-03-14T07:05:47;10.20;99.90
18252;DHT22;26917;52.328;20.878;2023-03-14T07:08:15;10.30;99.90
18252;DHT22;26917;52.328;20.878;2023-03-14T07:10:45;10.40;99.90
18252;DHT22;26917;52.328;20.878;2023-03-14T07:13:16;10.50;99.90
18252;DHT22;26917;52.328;20.878;2023-03-14T07:15:53;10.60;99.90
18252;DHT22;26917;52.328;20.878;2023-03-14T07:18:22;10.80;99.30
18252;DHT22;26917;52.328;20.878;2023-03-14T07:20:51;10.80;99.20
18252;DHT22;26917;52.328;20.878;2023-03-14T07:23:19;10.80;99.00
18252;DHT22;26917;52.328;20.878;2023-03-14T07:25:52;10.80;98.90
18252;DHT22;26917;52.328;20.878;2023-03-14T07:28:24;10.80;99.40
18252;DHT22;26917;52.328;20.878;2023-03-14T07:31:00;10.90;99.30
18252;DHT22;26917;52.328;20.878;2023-03-14T07:33:31;10.90;99.00
18252;DHT22;26917;52.328;20.878;2023-03-14T07:36:01;10.90;99.10
18252;DHT22;26917;52.328;20.878;2023-03-14T07:38:30;10.90;98.90
18252;DHT22;26917;52.328;20.878;2023-03-14T07:41:15;10.90;98.90
18252;DHT22;26917;52.328;20.878;2023-03-14T07:44:07;11.10;98.10
18252;DHT22;26917;52.328;20.878;2023-03-14T07:46:35;11.20;98.30
18252;DHT22;26917;52.328;20.878;2023-03-14T07:49:03;11.30;98.10
18252;DHT22;26917;52.328;20.878;2023-03-14T07:51:32;11.40;97.60
18252;DHT22;26917;52.328;20.878;2023-03-14T07:54:00;11.60;98.40
18252;DHT22;26917;52.328;20.878;2023-03-14T07:56:30;11.70;98.40
18252;DHT22;26917;52.328;20.878;2023-03-14T07:58:58;11.90;99.70
18252;DHT22;26917;52.328;20.878;2023-03-14T08:01:28;12.10;98.00
18252;DHT22;26917;52.328;20.878;2023-03-14T08:03:56;12.20;98.30
18252;DHT22;26917;52.328;20.878;2023-03-14T08:06:25;12.30;98.70
18252;DHT22;26917;52.328;20.878;2023-03-14T08:08:53;12.50;98.60
18252;DHT22;26917;52.328;20.878;2023-03-14T08:11:22;12.70;98.50
18252;DHT22;26917;52.328;20.878;2023-03-14T08:13:51;12.90;97.40
18252;DHT22;26917;52.328;20.878;2023-03-14T08:16:20;13.10;96.50
18252;DHT22;26917;52.328;20.878;2023-03-14T08:18:48;13.10;96.10
18252;DHT22;26917;52.328;20.878;2023-03-14T08:21:17;13.10;95.80
18252;DHT22;26917;52.328;20.878;2023-03-14T08:23:45;13.20;96.20
18252;DHT22;26917;52.328;20.878;2023-03-14T08:26:13;13.30;96.40
18252;DHT22;26917;52.328;20.878;2023-03-14T08:28:42;13.30;95.70
18252;DHT22;26917;52.328;20.878;2023-03-14T08:31:11;13.30;94.80
18252;DHT22;26917;52.328;20.878;2023-03-14T08:33:40;13.20;95.40
18252;DHT22;26917;52.328;20.878;2023-03-14T08:36:09;13.20;95.60
18252;DHT22;26917;52.328;20.878;2023-03-14T08:38:38;13.30;96.10
18252;DHT22;26917;52.328;20.878;2023-03-14T08:41:09;13.40;95.20
18252;DHT22;26917;52.328;20.878;2023-03-14T08:43:38;13.50;94.40
18252;DHT22;26917;52.328;20.878;2023-03-14T08:46:06;13.50;95.10
18252;DHT22;26917;52.328;20.878;2023-03-14T08:48:37;13.60;94.80
18252;DHT22;26917;52.328;20.878;2023-03-14T08:51:07;13.70;94.80
18252;DHT22;26917;52.328;20.878;2023-03-14T08:53:36;14.00;94.70
18252;DHT22;26917;52.328;20.878;2023-03-14T08:56:05;14.20;94.80
18252;DHT22;26917;52.328;20.878;2023-03-14T08:58:33;14.20;94.60
18252;DHT22;26917;52.328;20.878;2023-03-14T09:01:04;14.30;93.70
18252;DHT22;26917;52.328;20.878;2023-03-14T09:03:33;14.20;93.00
18252;DHT22;26917;52.328;20.878;2023-03-14T09:06:06;14.30;92.80
18252;DHT22;26917;52.328;20.878;2023-03-14T09:08:35;14.50;93.20
18252;DHT22;26917;52.328;20.878;2023-03-14T09:11:07;14.60;93.00
18252;DHT22;26917;52.328;20.878;2023-03-14T09:13:35;14.90;92.50
18252;DHT22;26917;52.328;20.878;2023-03-14T09:16:05;15.00;92.30
18252;DHT22;26917;52.328;20.878;2023-03-14T09:18:34;15.00;91.40
18252;DHT22;26917;52.328;20.878;2023-03-14T09:21:04;15.10;91.90
18252;DHT22;26917;52.328;20.878;2023-03-14T09:23:32;15.00;91.50
18252;DHT22;26917;52.328;20.878;2023-03-14T09:26:01;14.80;91.40
18252;DHT22;26917;52.328;20.878;2023-03-14T09:28:29;14.90;92.10
18252;DHT22;26917;52.328;20.878;2023-03-14T09:30:57;14.80;91.90
18252;DHT22;26917;52.328;20.878;2023-03-14T09:33:26;14.80;92.30
18252;DHT22;26917;52.328;20.878;2023-03-14T09:35:58;14.70;91.90
18252;DHT22;26917;52.328;20.878;2023-03-14T09:38:28;14.70;91.90
18252;DHT22;26917;52.328;20.878;2023-03-14T09:40:59;14.70;91.50
18252;DHT22;26917;52.328;20.878;2023-03-14T09:43:30;14.70;91.10
18252;DHT22;26917;52.328;20.878;2023-03-14T09:46:01;14.60;91.30
18252;DHT22;26917;52.328;20.878;2023-03-14T09:48:33;14.50;91.70
18252;DHT22;26917;52.328;20.878;2023-03-14T09:51:06;14.50;91.50
18252;DHT22;26917;52.328;20.878;2023-03-14T09:53:43;14.60;91.60
18252;DHT22;26917;52.328;20.878;2023-03-14T09:56:14;14.80;91.30
18252;DHT22;26917;52.328;20.878;2023-03-14T09:58:50;14.80;91.10
18252;DHT22;26917;52.328;20.878;2023-03-14T10:01:23;14.90;91.10
18252;DHT22;26917;52.328;20.878;2023-03-14T10:03:55;15.00;90.90
18252;DHT22;26917;52.328;20.878;2023-03-14T10:06:27;15.20;90.70
18252;DHT22;26917;52.328;20.878;2023-03-14T10:08:57;15.50;91.50
18252;DHT22;26917;52.328;20.878;2023-03-14T10:11:26;15.80;90.70
18252;DHT22;26917;52.328;20.878;2023-03-14T10:14:06;15.90;90.50
18252;DHT22;26917;52.328;20.878;2023-03-14T10:16:36;16.00;90.30
18252;DHT22;26917;52.328;20.878;2023-03-14T10:19:06;16.00;88.20
18252;DHT22;26917;52.328;20.878;2023-03-14T10:21:39;16.00;88.60
18252;DHT22;26917;52.328;20.878;2023-03-14T10:24:20;16.10;87.90
18252;DHT22;26917;52.328;20.878;2023-03-14T10:26:52;16.00;89.90
18252;DHT22;26917;52.328;20.878;2023-03-14T10:29:21;15.80;88.60
18252;DHT22;26917;52.328;20.878;2023-03-14T10:31:53;15.70;89.10
18252;DHT22;26917;52.328;20.878;2023-03-14T10:34:28;15.80;90.40
18252;DHT22;26917;52.328;20.878;2023-03-14T10:36:58;15.90;89.00
18252;DHT22;26917;52.328;20.878;2023-03-14T10:39:33;16.00;89.60
18252;DHT22;26917;52.328;20.878;2023-03-14T10:42:12;15.80;89.40
18252;DHT22;26917;52.328;20.878;2023-03-14T10:44:42;16.00;89.90
18252;DHT22;26917;52.328;20.878;2023-03-14T10:47:18;16.10;89.10
18252;DHT22;26917;52.328;20.878;2023-03-14T10:49:47;16.20;88.60
18252;DHT22;26917;52.328;20.878;2023-03-14T10:52:20;16.20;87.30
18252;DHT22;26917;52.328;20.878;2023-03-14T10:55:12;16.00;87.90
18252;DHT22;26917;52.328;20.878;2023-03-14T10:57:41;16.00;89.40
18252;DHT22;26917;52.328;20.878;2023-03-14T11:00:15;16.20;89.10
18252;DHT22;26917;52.328;20.878;2023-03-14T11:02:54;16.20;87.60
18252;DHT22;26917;52.328;20.878;2023-03-14T11:05:32;16.20;87.60
18252;DHT22;26917;52.328;20.878;2023-03-14T11:08:07;16.20;88.20
18252;DHT22;26917;52.328;20.878;2023-03-14T11:10:46;16.20;88.20
18252;DHT22;26917;52.328;20.878;2023-03-14T11:13:26;16.10;88.90
18252;DHT22;26917;52.328;20.878;2023-03-14T11:16:04;16.10;89.00
18252;DHT22;26917;52.328;20.878;2023-03-14T11:19:08;16.10;87.60
18252;DHT22;26917;52.328;20.878;2023-03-14T11:21:43;16.00;88.40
18252;DHT22;26917;52.328;20.878;2023-03-14T11:24:27;15.80;88.50
18252;DHT22;26917;52.328;20.878;2023-03-14T11:27:09;15.50;89.90
18252;DHT22;26917;52.328;20.878;2023-03-14T11:29:41;15.90;90.60
18252;DHT22;26917;52.328;20.878;2023-03-14T11:32:13;15.20;90.20
18252;DHT22;26917;52.328;20.878;2023-03-14T11:34:50;15.00;90.50
18252;DHT22;26917;52.328;20.878;2023-03-14T11:37:23;14.90;90.80
18252;DHT22;26917;52.328;20.878;2023-03-14T11:40:00;15.00;91.40
18252;DHT22;26917;52.328;20.878;2023-03-14T11:42:33;15.10;91.20
18252;DHT22;26917;52.328;20.878;2023-03-14T11:45:01;15.40;90.80
18252;DHT22;26917;52.328;20.878;2023-03-14T11:47:33;15.60;89.50
18252;DHT22;26917;52.328;20.878;2023-03-14T11:50:07;15.90;89.50
18252;DHT22;26917;52.328;20.878;2023-03-14T11:52:45;16.10;89.30
18252;DHT22;26917;52.328;20.878;2023-03-14T11:55:20;16.00;89.70
18252;DHT22;26917;52.328;20.878;2023-03-14T11:57:58;15.80;88.80
18252;DHT22;26917;52.328;20.878;2023-03-14T12:00:29;15.60;88.80
18252;DHT22;26917;52.328;20.878;2023-03-14T12:03:02;15.50;88.50
18252;DHT22;26917;52.328;20.878;2023-03-14T12:05:46;15.30;90.20
18252;DHT22;26917;52.328;20.878;2023-03-14T12:08:42;15.10;90.20
18252;DHT22;26917;52.328;20.878;2023-03-14T12:11:15;15.00;90.50
18252;DHT22;26917;52.328;20.878;2023-03-14T12:13:49;15.00;90.40
18252;DHT22;26917;52.328;20.878;2023-03-14T12:16:34;15.00;90.30
18252;DHT22;26917;52.328;20.878;2023-03-14T12:22:30;15.00;90.30
18252;DHT22;26917;52.328;20.878;2023-03-14T12:25:15;14.90;90.80
18252;DHT22;26917;52.328;20.878;2023-03-14T12:28:03;14.90;91.10
18252;DHT22;26917;52.328;20.878;2023-03-14T12:30:35;14.70;91.40
18252;DHT22;26917;52.328;20.878;2023-03-14T12:33:31;14.50;90.80
18252;DHT22;26917;52.328;20.878;2023-03-14T12:36:03;14.30;91.50
18252;DHT22;26917;52.328;20.878;2023-03-14T12:39:00;14.20;91.90
18252;DHT22;26917;52.328;20.878;2023-03-14T12:41:36;14.00;92.60
18252;DHT22;26917;52.328;20.878;2023-03-14T12:44:43;13.90;93.30
18252;DHT22;26917;52.328;20.878;2023-03-14T12:47:45;13.70;94.10
18252;DHT22;26917;52.328;20.878;2023-03-14T12:50:19;13.40;95.80
18252;DHT22;26917;52.328;20.878;2023-03-14T12:53:06;13.10;96.90
18252;DHT22;26917;52.328;20.878;2023-03-14T12:55:43;12.80;98.00
18252;DHT22;26917;52.328;20.878;2023-03-14T12:58:19;12.50;99.10
18252;DHT22;26917;52.328;20.878;2023-03-14T13:00:54;12.20;99.90
18252;DHT22;26917;52.328;20.878;2023-03-14T13:03:26;11.90;99.90
18252;DHT22;26917;52.328;20.878;2023-03-14T13:06:05;11.60;99.90
18252;DHT22;26917;52.328;20.878;2023-03-14T13:08:36;11.40;99.90
18252;DHT22;26917;52.328;20.878;2023-03-14T13:11:09;11.30;99.90
18252;DHT22;26917;52.328;20.878;2023-03-14T13:13:42;11.10;99.90
18252;DHT22;26917;52.328;20.878;2023-03-14T13:16:16;11.10;99.90
18252;DHT22;26917;52.328;20.878;2023-03-14T13:18:48;11.00;99.90
18252;DHT22;26917;52.328;20.878;2023-03-14T13:21:18;11.10;99.90
18252;DHT22;26917;52.328;20.878;2023-03-14T13:23:59;11.10;99.90
18252;DHT22;26917;52.328;20.878;2023-03-14T13:26:34;11.10;99.90
18252;DHT22;26917;52.328;20.878;2023-03-14T13:29:09;11.00;99.90
18252;DHT22;26917;52.328;20.878;2023-03-14T13:31:43;11.00;99.90
18252;DHT22;26917;52.328;20.878;2023-03-14T13:34:14;10.90;99.90
18252;DHT22;26917;52.328;20.878;2023-03-14T13:36:42;10.80;99.90
18252;DHT22;26917;52.328;20.878;2023-03-14T13:39:13;10.80;99.90
18252;DHT22;26917;52.328;20.878;2023-03-14T13:41:44;10.80;99.90
18252;DHT22;26917;52.328;20.878;2023-03-14T13:44:16;10.80;99.90
18252;DHT22;26917;52.328;20.878;2023-03-14T13:46:46;10.80;99.90
18252;DHT22;26917;52.328;20.878;2023-03-14T13:49:20;10.80;99.90
18252;DHT22;26917;52.328;20.878;2023-03-14T13:51:49;10.90;99.90
18252;DHT22;26917;52.328;20.878;2023-03-14T13:54:20;10.90;99.90
18252;DHT22;26917;52.328;20.878;2023-03-14T13:56:49;10.90;99.90
18252;DHT22;26917;52.328;20.878;2023-03-14T13:59:28;10.90;99.90
18252;DHT22;26917;52.328;20.878;2023-03-14T14:01:58;10.80;99.90
18252;DHT22;26917;52.328;20.878;2023-03-14T14:04:29;10.80;99.90
18252;DHT22;26917;52.328;20.878;2023-03-14T14:07:00;10.70;99.90
18252;DHT22;26917;52.328;20.878;2023-03-14T14:09:38;10.60;99.90
18252;DHT22;26917;52.328;20.878;2023-03-14T14:12:11;10.60;99.90
18252;DHT22;26917;52.328;20.878;2023-03-14T14:14:46;10.50;99.90
18252;DHT22;26917;52.328;20.878;2023-03-14T14:17:19;10.50;99.90
18252;DHT22;26917;52.328;20.878;2023-03-14T14:19:51;10.40;99.90
18252;DHT22;26917;52.328;20.878;2023-03-14T14:22:20;10.30;99.90
18252;DHT22;26917;52.328;20.878;2023-03-14T14:24:49;10.30;99.90
18252;DHT22;26917;52.328;20.878;2023-03-14T14:27:24;10.30;99.90
18252;DHT22;26917;52.328;20.878;2023-03-14T14:30:01;10.30;99.90
18252;DHT22;26917;52.328;20.878;2023-03-14T14:32:35;10.30;99.90
18252;DHT22;26917;52.328;20.878;2023-03-14T14:35:06;10.30;99.90
18252;DHT22;26917;52.328;20.878;2023-03-14T14:37:42;10.20;99.90
18252;DHT22;26917;52.328;20.878;2023-03-14T14:40:18;10.20;99.90
18252;DHT22;26917;52.328;20.878;2023-03-14T14:42:47;10.20;99.90
18252;DHT22;26917;52.328;20.878;2023-03-14T14:45:18;10.20;99.90
18252;DHT22;26917;52.328;20.878;2023-03-14T14:47:52;10.20;99.90
18252;DHT22;26917;52.328;20.878;2023-03-14T14:50:30;10.20;99.90
18252;DHT22;26917;52.328;20.878;2023-03-14T14:53:00;10.20;99.90
18252;DHT22;26917;52.328;20.878;2023-03-14T14:55:31;10.20;99.90
18252;DHT22;26917;52.328;20.878;2023-03-14T14:58:12;10.20;99.90
18252;DHT22;26917;52.328;20.878;2023-03-14T15:00:51;10.20;99.90
18252;DHT22;26917;52.328;20.878;2023-03-14T15:03:20;10.10;99.90
18252;DHT22;26917;52.328;20.878;2023-03-14T15:05:53;10.10;99.90
18252;DHT22;26917;52.328;20.878;2023-03-14T15:08:22;10.10;99.90
18252;DHT22;26917;52.328;20.878;2023-03-14T15:10:50;10.10;99.90
18252;DHT22;26917;52.328;20.878;2023-03-14T15:13:19;10.10;99.90
18252;DHT22;26917;52.328;20.878;2023-03-14T15:15:47;10.10;99.90
18252;DHT22;26917;52.328;20.878;2023-03-14T15:18:17;10.10;99.90
18252;DHT22;26917;52.328;20.878;2023-03-14T15:20:46;10.00;99.90
18252;DHT22;26917;52.328;20.878;2023-03-14T15:23:18;10.00;99.90
18252;DHT22;26917;52.328;20.878;2023-03-14T15:25:46;10.00;99.90
18252;DHT22;26917;52.328;20.878;2023-03-14T15:28:24;9.90;99.90
18252;DHT22;26917;52.328;20.878;2023-03-14T15:30:54;10.00;99.90
18252;DHT22;26917;52.328;20.878;2023-03-14T15:33:23;9.90;99.90
18252;DHT22;26917;52.328;20.878;2023-03-14T15:35:52;9.90;99.90
18252;DHT22;26917;52.328;20.878;2023-03-14T15:38:22;9.90;99.90
18252;DHT22;26917;52.328;20.878;2023-03-14T15:40:51;9.90;99.90
18252;DHT22;26917;52.328;20.878;2023-03-14T15:43:20;9.80;99.90
18252;DHT22;26917;52.328;20.878;2023-03-14T15:45:48;9.80;99.90
18252;DHT22;26917;52.328;20.878;2023-03-14T15:48:19;9.80;99.90
18252;DHT22;26917;52.328;20.878;2023-03-14T15:50:47;9.80;99.90
18252;DHT22;26917;52.328;20.878;2023-03-14T15:53:16;9.80;99.90
18252;DHT22;26917;52.328;20.878;2023-03-14T15:55:46;9.70;99.90
18252;DHT22;26917;52.328;20.878;2023-03-14T15:58:16;9.70;99.90
18252;DHT22;26917;52.328;20.878;2023-03-14T16:00:48;9.70;99.90
18252;DHT22;26917;52.328;20.878;2023-03-14T16:03:16;9.70;99.90